Saint Petersburg, FL

12:47 PM EST on November 27, 2014 (GMT -0500)
Euclid Place | Change Station
CLOSE
Current Station
Personal Weather Station
Location: Saint Petersburg, FL
Elevation: 66 ft
Nearby Weather Stations
Active Advisory: Coastal Hazard Statement

Elev 66 ft 27.79 °N, 82.65 °W | Updated 8 seconds ago

Mostly Cloudy
Mostly Cloudy
68.7 °F
Feels Like 68.7 °F
N
1.0
Wind Variable Wind from ESE
Gusts 6.0 mph

Today
High -- | Low -- °F
--% Chance of Precip.
Yesterday
High -- | Low -- °F
Precip. -- in
7:01 AM 5:35 PM
Waxing Crescent, 31% visible
Pressure 30.24 in
Visibility 10.0 miles
Clouds Mostly Cloudy 3800 ft
Dew Point 55 °F
Humidity 62%
Rainfall 0.00 in
Snow Depth Not available.
UV 4 out of 12
Pollen 4.10 out of 12
Air Quality Not available.
Flu Activity Not available.
METAR KSPG 271653Z 32011G16KT 10SM BKN038 20/12 A3024 RMK AO2 SLP240 T02000117

More Conditions Fewer Conditions

Pressure 30.24 in
Visibility 10.0 miles
Clouds Mostly Cloudy 3800 ft
Dew Point 55 °F
Humidity 62%
Rainfall 0.00 in
Snow Depth Not available.
UV 4 out of 12
Pollen 4.10 out of 12
Air Quality Not available.
Flu Activity Not available.
METAR KSPG 271653Z 32011G16KT 10SM BKN038 20/12 A3024 RMK AO2 SLP240 T02000117

More Conditions Fewer Conditions

10-Day Weather Forecast

Almanac

Astronomy

Nov. 27, 2014 Rise Set
Actual Time
Civil Twilight
Nautical Twilight
Astronomical Twilight
Moon
Length of Visible Light
Length of Day
Tomorrow will be .
, % of the Moon is Illuminated

Today's Extremes

State Highs State Lows

Community

WunderPhotos

Upload Photos

1,774,061 photos uploaded!

WunderBlogs® & News

Nearby

Air Quality

  Air Quality AQ Index Pollutant
Not available.

Snow Depth

Station Depth Elevation

Earthquake Activity

City Distance Mag. Time & Date
Minimum magnitude displayed is 2.5.

Coastal Water Temperatures

Place Temperature

Nearby Weather Stations